createdAt,value
2018-12-06T00:02:20.148Z,99217.53
2018-12-06T00:04:48.405Z,99224.04
2018-12-06T00:07:18.547Z,99223.87
2018-12-06T00:09:46.977Z,99225.36
2018-12-06T00:12:15.277Z,99219.91
2018-12-06T00:14:43.665Z,99231.80
2018-12-06T00:17:15.984Z,99242.64
2018-12-06T00:19:44.676Z,99230.08
2018-12-06T00:23:15.750Z,99228.87
2018-12-06T00:25:44.061Z,99237.56
2018-12-06T00:28:12.772Z,99239.89
2018-12-06T00:30:42.132Z,99236.23
2018-12-06T00:33:10.621Z,99233.05
2018-12-06T00:35:39.004Z,99231.56
2018-12-06T00:38:07.257Z,99228.46
2018-12-06T00:40:35.630Z,99221.13
2018-12-06T00:43:04.584Z,99228.65
2018-12-06T00:45:32.800Z,99223.25
2018-12-06T00:48:00.981Z,99219.05
2018-12-06T00:50:30.096Z,99220.35
2018-12-06T00:52:58.353Z,99220.16
2018-12-06T00:55:26.611Z,99220.67
2018-12-06T00:57:54.786Z,99218.19
2018-12-06T01:00:23.051Z,99221.54
2018-12-06T01:02:51.380Z,99220.78
2018-12-06T01:05:19.550Z,99217.58
2018-12-06T01:07:47.781Z,99217.58
2018-12-06T01:10:16.328Z,99221.55
2018-12-06T01:12:44.583Z,99211.27
2018-12-06T01:15:12.761Z,99217.98
2018-12-06T01:17:40.940Z,99210.91
2018-12-06T01:20:09.298Z,99216.11
2018-12-06T01:22:38.322Z,99216.31
2018-12-06T01:25:07.079Z,99216.97
2018-12-06T01:27:35.330Z,99222.56
2018-12-06T01:30:03.602Z,99220.12
2018-12-06T01:32:31.776Z,99216.27
2018-12-06T01:34:59.977Z,99222.21
2018-12-06T01:37:28.396Z,99226.38
2018-12-06T01:39:56.595Z,99225.45
2018-12-06T01:42:24.896Z,99223.08
2018-12-06T01:44:53.071Z,99219.47
2018-12-06T01:47:21.238Z,99224.95
2018-12-06T01:49:49.431Z,99226.94
2018-12-06T01:52:17.664Z,99223.89
2018-12-06T01:54:45.847Z,99215.09
2018-12-06T01:57:14.637Z,99218.04
2018-12-06T01:59:42.961Z,99219.36
2018-12-06T02:02:11.181Z,99215.86
2018-12-06T02:04:39.376Z,99218.30
2018-12-06T02:07:07.629Z,99226.83
2018-12-06T02:09:35.807Z,99234.67
2018-12-06T02:12:04.308Z,99229.48
2018-12-06T02:14:32.721Z,99231.41
2018-12-06T02:17:00.978Z,99224.13
2018-12-06T02:19:29.542Z,99223.73
2018-12-06T02:21:57.761Z,99220.06
2018-12-06T02:24:25.938Z,99218.84
2018-12-06T02:26:54.124Z,99212.03
2018-12-06T02:29:22.381Z,99215.34
2018-12-06T02:31:50.561Z,99208.73
2018-12-06T02:34:20.226Z,99204.86
2018-12-06T02:36:48.533Z,99199.93
2018-12-06T02:39:17.936Z,99204.09
2018-12-06T02:41:46.134Z,99197.68
2018-12-06T02:44:14.355Z,99190.67
2018-12-06T02:46:42.670Z,99195.23
2018-12-06T02:49:10.941Z,99193.52
2018-12-06T02:51:39.309Z,99199.37
2018-12-06T02:54:07.526Z,99196.42
2018-12-06T02:56:35.769Z,99195.20
2018-12-06T02:59:03.952Z,99191.63
2018-12-06T03:01:32.225Z,99192.68
2018-12-06T03:04:00.401Z,99190.80
2018-12-06T03:06:28.644Z,99198.91
2018-12-06T03:08:56.844Z,99190.61
2018-12-06T03:11:25.010Z,99184.82
2018-12-06T03:13:53.243Z,99188.78
2018-12-06T03:16:21.547Z,99184.36
2018-12-06T03:18:49.849Z,99184.82
2018-12-06T03:21:19.203Z,99185.80
2018-12-06T03:23:47.415Z,99189.09
2018-12-06T03:26:15.583Z,99194.21
2018-12-06T03:28:43.769Z,99192.03
2018-12-06T03:31:11.941Z,99191.88
2018-12-06T03:33:40.599Z,99203.25
2018-12-06T03:36:08.906Z,99214.43
2018-12-06T03:38:37.088Z,99215.20
2018-12-06T03:41:05.272Z,99213.47
2018-12-06T03:43:33.517Z,99211.91
2018-12-06T03:46:01.821Z,99209.03
2018-12-06T03:48:30.033Z,99221.80
2018-12-06T03:50:58.362Z,99227.38
2018-12-06T03:53:26.552Z,99228.81
2018-12-06T03:55:54.722Z,99246.92
2018-12-06T03:58:22.983Z,99256.64
2018-12-06T04:00:51.272Z,99255.72
2018-12-06T04:03:19.521Z,99262.89
2018-12-06T04:05:47.801Z,99261.02
2018-12-06T04:08:15.982Z,99257.25
2018-12-06T04:10:44.163Z,99258.31
2018-12-06T04:13:12.362Z,99265.29
2018-12-06T04:15:40.594Z,99269.81
2018-12-06T04:18:08.762Z,99266.20
2018-12-06T04:20:36.952Z,99265.78
2018-12-06T04:23:05.134Z,99265.09
2018-12-06T04:25:33.460Z,99258.41
2018-12-06T04:28:01.672Z,99260.34
2018-12-06T04:30:29.844Z,99262.13
2018-12-06T04:32:58.584Z,99257.14
2018-12-06T04:35:26.798Z,99257.04
2018-12-06T04:37:55.176Z,99250.53
2018-12-06T04:40:23.369Z,99252.25
2018-12-06T04:42:51.621Z,99249.78
2018-12-06T04:45:20.574Z,99253.37
2018-12-06T04:47:48.793Z,99255.81
2018-12-06T04:50:16.965Z,99262.02
2018-12-06T04:52:45.298Z,99263.65
2018-12-06T04:55:13.518Z,99264.86
2018-12-06T04:57:41.692Z,99261.56
2018-12-06T05:00:10.024Z,99264.51
2018-12-06T05:02:38.245Z,99267.16
2018-12-06T05:05:06.732Z,99278.60
2018-12-06T05:07:34.908Z,99272.30
2018-12-06T05:10:03.288Z,99273.17
2018-12-06T05:12:32.232Z,99278.66
2018-12-06T05:15:00.546Z,99281.31
2018-12-06T05:17:28.826Z,99288.02
2018-12-06T05:19:57.508Z,99294.34
2018-12-06T05:22:25.672Z,99292.20
2018-12-06T05:24:53.898Z,99290.41
2018-12-06T05:27:22.133Z,99281.68
2018-12-06T05:29:50.295Z,99279.23
2018-12-06T05:32:18.524Z,99280.20
2018-12-06T05:34:46.752Z,99281.16
2018-12-06T05:37:15.150Z,99294.85
2018-12-06T05:39:43.353Z,99304.31
2018-12-06T05:42:11.573Z,99314.03
2018-12-06T05:44:39.744Z,99313.83
2018-12-06T05:47:07.979Z,99308.55
2018-12-06T05:49:36.199Z,99314.03
2018-12-06T05:52:04.476Z,99314.80
2018-12-06T05:54:32.657Z,99324.63
2018-12-06T05:57:00.833Z,99330.67
2018-12-06T05:59:30.387Z,99326.12
2018-12-06T06:01:58.597Z,99336.88
2018-12-06T06:04:26.772Z,99344.15
2018-12-06T06:06:56.954Z,99357.34
2018-12-06T06:09:25.680Z,99361.47
2018-12-06T06:11:54.061Z,99365.64
2018-12-06T06:14:22.699Z,99365.55
2018-12-06T06:16:50.873Z,99356.83
2018-12-06T06:19:19.037Z,99356.16
2018-12-06T06:21:48.030Z,99358.34
2018-12-06T06:24:16.250Z,99354.94
2018-12-06T06:26:44.573Z,99348.52
2018-12-06T06:29:12.812Z,99344.25
2018-12-06T06:31:40.976Z,99341.20
2018-12-06T06:34:09.191Z,99350.47
2018-12-06T06:36:37.437Z,99347.22
2018-12-06T06:39:07.449Z,99354.18
2018-12-06T06:41:37.524Z,99356.81
2018-12-06T06:44:05.745Z,99360.35
2018-12-06T06:46:34.011Z,99362.36
2018-12-06T06:49:02.962Z,99365.98
2018-12-06T06:51:31.147Z,99367.31
2018-12-06T06:53:59.338Z,99365.73
2018-12-06T06:56:27.735Z,99365.62
2018-12-06T06:58:55.917Z,99373.27
2018-12-06T07:01:24.851Z,99372.05
2018-12-06T07:03:53.070Z,99368.77
2018-12-06T07:06:21.393Z,99374.44
2018-12-06T07:08:50.371Z,99384.92
2018-12-06T07:11:18.587Z,99391.45
2018-12-06T07:13:46.777Z,99390.98
2018-12-06T07:16:15.056Z,99390.78
2018-12-06T07:18:43.252Z,99393.92
2018-12-06T07:21:11.647Z,99402.53
2018-12-06T07:23:39.903Z,99409.36
2018-12-06T07:26:08.081Z,99423.82
2018-12-06T07:28:37.062Z,99427.13
2018-12-06T07:31:05.329Z,99427.80
2018-12-06T07:33:33.526Z,99421.58
2018-12-06T07:36:05.214Z,99428.10
2018-12-06T07:38:33.391Z,99427.05
2018-12-06T07:41:01.606Z,99431.22
2018-12-06T07:43:31.368Z,99440.84
2018-12-06T07:46:05.666Z,99451.64
2018-12-06T07:48:34.307Z,99450.05
2018-12-06T07:51:02.708Z,99454.39
2018-12-06T07:53:32.174Z,99468.59
2018-12-06T07:56:00.349Z,99474.09
2018-12-06T07:58:30.533Z,99468.60
2018-12-06T08:01:00.658Z,99469.20
2018-12-06T08:03:28.896Z,99479.14
2018-12-06T08:05:57.139Z,99474.59
2018-12-06T08:08:25.957Z,99477.91
2018-12-06T08:10:54.201Z,99479.06
2018-12-06T08:13:22.386Z,99486.36
2018-12-06T08:15:51.151Z,99495.16
2018-12-06T08:18:19.329Z,99490.98
2018-12-06T08:20:47.640Z,99486.25
2018-12-06T08:23:16.701Z,99491.64
2018-12-06T08:25:44.909Z,99505.01
2018-12-06T08:28:13.090Z,99516.17
2018-12-06T08:30:42.176Z,99516.94
2018-12-06T08:33:10.459Z,99508.94
2018-12-06T08:35:38.694Z,99522.66
2018-12-06T08:38:06.914Z,99526.63
2018-12-06T08:40:35.081Z,99524.75
2018-12-06T08:43:03.262Z,99523.37
2018-12-06T08:45:32.299Z,99515.24
2018-12-06T08:48:00.478Z,99509.75
2018-12-06T08:50:28.737Z,99507.64
2018-12-06T08:52:56.917Z,99508.39
2018-12-06T08:55:25.105Z,99503.27
2018-12-06T08:57:53.273Z,99500.41
2018-12-06T09:00:21.446Z,99500.49
2018-12-06T09:02:49.616Z,99509.50
2018-12-06T09:05:17.777Z,99509.77
2018-12-06T09:07:46.047Z,99510.86
2018-12-06T09:10:14.211Z,99500.38
2018-12-06T09:12:42.441Z,99503.80
2018-12-06T09:15:10.618Z,99499.81
2018-12-06T09:17:38.795Z,99497.05
2018-12-06T09:20:07.820Z,99508.39
2018-12-06T09:22:35.988Z,99511.19
2018-12-06T09:25:04.265Z,99510.95
2018-12-06T09:27:32.990Z,99509.09
2018-12-06T09:30:01.174Z,99499.52
2018-12-06T09:32:29.444Z,99504.38
2018-12-06T09:34:57.612Z,99518.08
2018-12-06T09:37:25.818Z,99513.86
2018-12-06T09:39:58.926Z,99511.03
2018-12-06T09:42:27.195Z,99513.49
2018-12-06T09:44:55.500Z,99509.92
2018-12-06T09:47:24.406Z,99511.29
2018-12-06T09:49:52.708Z,99512.16
2018-12-06T09:52:20.870Z,99522.02
2018-12-06T09:54:49.046Z,99526.80
2018-12-06T09:57:17.224Z,99517.23
2018-12-06T09:59:46.979Z,99518.73
2018-12-06T10:02:15.383Z,99528.53
2018-12-06T10:04:43.570Z,99536.47
2018-12-06T10:07:11.774Z,99540.55
2018-12-06T10:09:39.940Z,99551.01
2018-12-06T10:12:08.130Z,99561.19
2018-12-06T10:14:36.338Z,99556.06
2018-12-06T10:17:04.613Z,99553.27
2018-12-06T10:19:32.865Z,99565.14
2018-12-06T10:22:01.048Z,99577.09
2018-12-06T10:24:29.326Z,99581.01
2018-12-06T10:26:57.537Z,99569.91
2018-12-06T10:29:25.775Z,99579.27
2018-12-06T10:31:54.152Z,99572.98
2018-12-06T10:34:22.541Z,99562.77
2018-12-06T10:36:50.779Z,99555.20
2018-12-06T10:39:18.962Z,99557.41
2018-12-06T10:41:47.149Z,99554.98
2018-12-06T10:44:28.493Z,99561.62
2018-12-06T10:46:57.305Z,99555.37
2018-12-06T10:49:25.539Z,99557.99
2018-12-06T10:51:53.944Z,99562.23
2018-12-06T10:54:25.388Z,99561.47
2018-12-06T10:56:53.556Z,99569.64
2018-12-06T10:59:21.725Z,99570.25
2018-12-06T11:01:56.965Z,99568.18
2018-12-06T11:04:29.395Z,99578.27
2018-12-06T11:06:57.600Z,99578.89
2018-12-06T11:09:25.810Z,99576.59
2018-12-06T11:11:53.955Z,99569.54
2018-12-06T11:14:22.171Z,99576.45
2018-12-06T11:16:50.447Z,99580.98
2018-12-06T11:19:18.612Z,99576.37
2018-12-06T11:21:46.835Z,99576.80
2018-12-06T11:24:15.009Z,99571.30
2018-12-06T11:26:43.175Z,99569.94
2018-12-06T11:29:11.366Z,99566.35
2018-12-06T11:31:39.541Z,99571.33
2018-12-06T11:34:07.846Z,99569.94
2018-12-06T11:36:36.040Z,99578.20
2018-12-06T11:39:07.311Z,99573.55
2018-12-06T11:41:42.817Z,99563.81
2018-12-06T11:44:05.887Z,99558.21
2018-12-06T11:46:34.095Z,99561.45
2018-12-06T11:49:02.278Z,99570.35
2018-12-06T11:51:30.496Z,99570.89
2018-12-06T11:53:58.665Z,99569.40
2018-12-06T11:56:26.846Z,99563.48
2018-12-06T11:58:55.084Z,99563.22
2018-12-06T12:01:23.292Z,99559.63
2018-12-06T12:03:51.470Z,99569.81
2018-12-06T12:06:20.221Z,99561.34
2018-12-06T12:08:48.434Z,99553.95
2018-12-06T12:11:16.613Z,99555.84
2018-12-06T12:13:45.149Z,99564.11
2018-12-06T12:16:13.358Z,99569.02
2018-12-06T12:18:41.843Z,99567.48
2018-12-06T12:21:10.032Z,99568.84
2018-12-06T12:23:38.301Z,99568.42
2018-12-06T12:26:06.625Z,99568.70
2018-12-06T12:28:34.845Z,99565.29
2018-12-06T12:31:03.020Z,99559.04
2018-12-06T12:33:31.324Z,99549.77
2018-12-06T12:35:59.585Z,99553.30
2018-12-06T12:38:27.753Z,99548.77
2018-12-06T12:40:56.037Z,99545.39
2018-12-06T12:43:24.299Z,99545.39
2018-12-06T12:45:52.472Z,99542.81
2018-12-06T12:48:20.773Z,99540.31
2018-12-06T12:50:49.114Z,99543.67
2018-12-06T12:53:17.299Z,99541.78
2018-12-06T12:55:45.942Z,99543.88
2018-12-06T12:58:14.139Z,99539.35
2018-12-06T13:00:42.309Z,99540.71
2018-12-06T13:03:10.505Z,99544.17
2018-12-06T13:05:38.771Z,99547.41
2018-12-06T13:08:07.724Z,99545.11
2018-12-06T13:10:35.933Z,99550.36
2018-12-06T13:13:04.118Z,99545.83
2018-12-06T13:15:32.336Z,99543.84
2018-12-06T13:18:00.572Z,99551.75
2018-12-06T13:20:28.749Z,99555.37
2018-12-06T13:22:57.066Z,99550.63
2018-12-06T13:25:25.287Z,99549.42
2018-12-06T13:27:53.561Z,99549.00
2018-12-06T13:30:21.758Z,99537.48
2018-12-06T13:32:50.226Z,99542.19
2018-12-06T13:35:18.404Z,99542.94
2018-12-06T13:37:46.705Z,99540.27
2018-12-06T13:40:14.943Z,99534.86
2018-12-06T13:42:43.235Z,99534.64
2018-12-06T13:45:11.505Z,99542.22
2018-12-06T13:47:39.870Z,99539.03
2018-12-06T13:50:08.244Z,99537.66
2018-12-06T13:52:36.421Z,99533.20
2018-12-06T13:55:04.810Z,99535.53
2018-12-06T13:57:33.025Z,99537.78
2018-12-06T14:00:01.246Z,99535.28
2018-12-06T14:02:29.530Z,99543.64
2018-12-06T14:04:57.730Z,99545.66
2018-12-06T14:07:25.980Z,99543.82
2018-12-06T14:09:54.156Z,99551.45
2018-12-06T14:12:23.173Z,99551.25
2018-12-06T14:14:51.424Z,99556.26
2018-12-06T14:17:19.593Z,99564.81
2018-12-06T14:19:48.267Z,99561.97
2018-12-06T14:22:16.452Z,99554.62
2018-12-06T14:24:44.629Z,99555.55
2018-12-06T14:27:12.958Z,99557.65
2018-12-06T14:29:41.183Z,99552.83
2018-12-06T14:32:09.363Z,99550.78
2018-12-06T14:34:38.253Z,99542.91
2018-12-06T14:37:06.514Z,99532.86
2018-12-06T14:39:34.797Z,99549.20
2018-12-06T14:42:03.023Z,99559.39
2018-12-06T14:44:31.234Z,99556.70
2018-12-06T14:46:59.413Z,99549.89
2018-12-06T14:49:27.630Z,99560.34
2018-12-06T14:51:55.865Z,99555.96
2018-12-06T14:54:24.033Z,99557.56
2018-12-06T14:56:52.250Z,99560.84
2018-12-06T14:59:20.488Z,99552.91
2018-12-06T15:01:48.697Z,99555.48
2018-12-06T15:04:16.957Z,99554.98
2018-12-06T15:06:45.127Z,99555.16
2018-12-06T15:09:13.477Z,99552.62
2018-12-06T15:11:42.232Z,99553.47
2018-12-06T15:14:10.455Z,99551.55
2018-12-06T15:16:38.623Z,99548.03
2018-12-06T15:19:10.349Z,99555.61
2018-12-06T15:21:38.541Z,99549.62
2018-12-06T15:24:06.734Z,99554.91
2018-12-06T15:26:34.904Z,99555.89
2018-12-06T15:29:03.174Z,99553.16
2018-12-06T15:31:31.510Z,99555.70
2018-12-06T15:33:59.828Z,99569.73
2018-12-06T15:36:28.010Z,99569.33
2018-12-06T15:38:56.247Z,99565.42
2018-12-06T15:41:24.461Z,99565.38
2018-12-06T15:43:52.729Z,99568.31
2018-12-06T15:46:20.953Z,99570.50
2018-12-06T15:48:49.188Z,99566.20
2018-12-06T15:51:18.474Z,99565.22
2018-12-06T15:53:47.143Z,99568.70
2018-12-06T15:56:15.301Z,99566.59
2018-12-06T15:58:43.604Z,99569.25
2018-12-06T16:01:11.852Z,99567.80
2018-12-06T16:03:40.061Z,99573.64
2018-12-06T16:06:08.247Z,99573.64
2018-12-06T16:08:36.530Z,99576.62
2018-12-06T16:11:04.697Z,99563.50
2018-12-06T16:13:32.862Z,99571.59
2018-12-06T16:16:01.160Z,99566.20
2018-12-06T16:18:29.380Z,99560.91
2018-12-06T16:20:57.659Z,99560.52
2018-12-06T16:23:25.865Z,99567.64
2018-12-06T16:25:54.132Z,99567.41
2018-12-06T16:28:22.311Z,99561.03
2018-12-06T16:30:50.512Z,99558.84
2018-12-06T16:33:18.749Z,99558.80
2018-12-06T16:35:46.929Z,99565.25
2018-12-06T16:38:15.124Z,99559.27
2018-12-06T16:40:43.362Z,99563.92
2018-12-06T16:43:11.529Z,99570.06
2018-12-06T16:45:40.182Z,99563.36
2018-12-06T16:48:08.404Z,99571.15
2018-12-06T16:50:36.571Z,99566.42
2018-12-06T16:53:04.808Z,99573.08
2018-12-06T16:55:33.021Z,99567.30
2018-12-06T16:58:01.195Z,99567.89
2018-12-06T17:00:29.403Z,99572.22
2018-12-06T17:02:57.653Z,99560.29
2018-12-06T17:05:25.819Z,99560.39
2018-12-06T17:07:54.876Z,99562.89
2018-12-06T17:10:23.102Z,99563.31
2018-12-06T17:12:51.274Z,99566.25
2018-12-06T17:15:19.618Z,99566.49
2018-12-06T17:17:47.894Z,99563.28
2018-12-06T17:20:16.089Z,99560.30
2018-12-06T17:22:44.311Z,99559.28
2018-12-06T17:25:12.552Z,99558.84
2018-12-06T17:27:40.731Z,99558.54
2018-12-06T17:30:10.590Z,99555.13
2018-12-06T17:32:38.796Z,99557.84
2018-12-06T17:35:07.072Z,99550.17
2018-12-06T17:37:35.254Z,99550.33
2018-12-06T17:40:03.646Z,99551.31
2018-12-06T17:42:31.939Z,99564.03
2018-12-06T17:45:00.170Z,99563.02
2018-12-06T17:47:28.350Z,99557.95
2018-12-06T17:49:56.541Z,99550.63
2018-12-06T17:52:24.806Z,99551.42
2018-12-06T17:54:54.172Z,99549.94
2018-12-06T17:57:22.374Z,99548.14
2018-12-06T17:59:50.540Z,99550.14
2018-12-06T18:02:18.732Z,99549.91
2018-12-06T18:04:46.953Z,99544.08
2018-12-06T18:07:15.225Z,99526.77
2018-12-06T18:09:43.392Z,99533.98
2018-12-06T18:12:11.707Z,99525.25
2018-12-06T18:14:39.911Z,99516.05
2018-12-06T18:17:08.107Z,99528.84
2018-12-06T18:19:36.389Z,99532.99
2018-12-06T18:22:04.715Z,99525.64
2018-12-06T18:24:33.110Z,99531.55
2018-12-06T18:27:01.289Z,99529.70
2018-12-06T18:29:29.572Z,99538.98
2018-12-06T18:31:57.878Z,99548.22
2018-12-06T18:34:26.098Z,99540.16
2018-12-06T18:36:54.290Z,99536.23
2018-12-06T18:39:24.411Z,99540.45
2018-12-06T18:41:52.674Z,99543.58
2018-12-06T18:44:20.873Z,99541.66
2018-12-06T18:46:49.104Z,99536.60
2018-12-06T18:49:17.402Z,99539.94
2018-12-06T18:51:45.680Z,99539.81
2018-12-06T18:54:13.949Z,99533.57
2018-12-06T18:56:42.493Z,99526.22
2018-12-06T18:59:10.727Z,99531.91
2018-12-06T19:01:38.990Z,99529.59
2018-12-06T19:04:07.264Z,99534.49
2018-12-06T19:06:42.279Z,99535.08
2018-12-06T19:09:10.603Z,99536.39
2018-12-06T19:11:38.835Z,99533.84
2018-12-06T19:14:07.040Z,99534.36
2018-12-06T19:16:35.307Z,99535.77
2018-12-06T19:19:03.577Z,99538.30
2018-12-06T19:21:32.918Z,99534.16
2018-12-06T19:24:01.248Z,99540.45
2018-12-06T19:26:29.418Z,99544.21
2018-12-06T19:28:57.703Z,99548.84
2018-12-06T19:31:25.875Z,99550.75
2018-12-06T19:33:54.515Z,99549.71
2018-12-06T19:36:22.731Z,99551.79
2018-12-06T19:38:51.039Z,99557.30
2018-12-06T19:41:19.288Z,99560.24
2018-12-06T19:43:47.560Z,99565.22
2018-12-06T19:46:16.316Z,99566.20
2018-12-06T19:48:44.605Z,99564.54
2018-12-06T19:51:12.795Z,99570.44
2018-12-06T19:53:41.080Z,99562.41
2018-12-06T19:56:09.435Z,99566.84
2018-12-06T19:58:38.313Z,99562.62
2018-12-06T20:01:06.598Z,99553.59
2018-12-06T20:03:34.840Z,99549.30
2018-12-06T20:06:03.042Z,99545.23
2018-12-06T20:08:32.229Z,99545.81
2018-12-06T20:11:00.469Z,99547.78
2018-12-06T20:13:28.748Z,99545.43
2018-12-06T20:15:56.955Z,99551.92
2018-12-06T20:18:25.134Z,99551.56
2018-12-06T20:20:53.393Z,99543.86
2018-12-06T20:23:21.587Z,99550.17
2018-12-06T20:25:49.761Z,99548.59
2018-12-06T20:28:17.942Z,99540.97
2018-12-06T20:30:46.113Z,99532.92
2018-12-06T20:33:14.367Z,99531.42
2018-12-06T20:35:42.745Z,99532.52
2018-12-06T20:38:10.929Z,99534.31
2018-12-06T20:40:39.203Z,99539.52
2018-12-06T20:43:07.505Z,99540.62
2018-12-06T20:45:35.677Z,99544.97
2018-12-06T20:48:05.607Z,99538.35
2018-12-06T20:50:34.775Z,99534.83
2018-12-06T20:53:02.970Z,99545.31
2018-12-06T20:55:32.101Z,99532.92
2018-12-06T20:58:00.944Z,99541.25
2018-12-06T21:00:29.126Z,99533.84
2018-12-06T21:02:57.304Z,99525.70
2018-12-06T21:05:25.525Z,99525.05
2018-12-06T21:07:53.794Z,99525.31
2018-12-06T21:10:31.406Z,99521.39
2018-12-06T21:12:59.709Z,99513.52
2018-12-06T21:15:27.983Z,99511.88
2018-12-06T21:17:56.205Z,99513.45
2018-12-06T21:20:24.392Z,99513.50
2018-12-06T21:22:52.580Z,99516.23
2018-12-06T21:25:20.779Z,99507.39
2018-12-06T21:27:49.377Z,99510.27
2018-12-06T21:30:19.073Z,99515.79
2018-12-06T21:32:49.774Z,99515.01
2018-12-06T21:35:19.239Z,99516.99
2018-12-06T21:37:48.793Z,99518.16
2018-12-06T21:40:19.082Z,99517.61
2018-12-06T21:42:49.338Z,99525.70
2018-12-06T21:45:18.955Z,99512.93
2018-12-06T21:47:48.637Z,99513.09
2018-12-06T21:50:18.065Z,99515.00
2018-12-06T21:52:48.237Z,99513.73
2018-12-06T21:55:18.704Z,99500.90
2018-12-06T21:57:49.620Z,99508.08
2018-12-06T22:00:20.578Z,99511.83
2018-12-06T22:02:49.366Z,99512.57
2018-12-06T22:05:17.624Z,99499.52
2018-12-06T22:07:46.513Z,99499.63
2018-12-06T22:10:14.825Z,99501.35
2018-12-06T22:12:44.288Z,99498.94
2018-12-06T22:15:12.816Z,99503.16
2018-12-06T22:17:41.021Z,99495.81
2018-12-06T22:20:09.357Z,99494.48
2018-12-06T22:22:38.479Z,99501.02
2018-12-06T22:25:07.626Z,99505.59
2018-12-06T22:27:37.745Z,99501.08
2018-12-06T22:30:07.468Z,99499.36
2018-12-06T22:32:36.933Z,99505.65
2018-12-06T22:35:06.834Z,99508.31
2018-12-06T22:37:37.928Z,99505.81
2018-12-06T22:40:06.665Z,99507.45
2018-12-06T22:42:34.902Z,99508.50
2018-12-06T22:45:14.549Z,99509.99
2018-12-06T22:47:42.722Z,99503.92
2018-12-06T22:50:10.959Z,99509.63
2018-12-06T22:52:39.171Z,99506.23
2018-12-06T22:55:08.041Z,99504.04
2018-12-06T22:57:37.367Z,99504.67
2018-12-06T23:00:08.870Z,99494.16
2018-12-06T23:02:38.625Z,99490.63
2018-12-06T23:05:07.040Z,99494.78
2018-12-06T23:07:37.969Z,99495.38
2018-12-06T23:10:07.679Z,99492.98
2018-12-06T23:12:37.091Z,99491.66
2018-12-06T23:15:07.441Z,99488.14
2018-12-06T23:17:37.210Z,99487.03
2018-12-06T23:20:05.673Z,99491.66
2018-12-06T23:22:33.854Z,99486.98
2018-12-06T23:25:02.096Z,99480.22
2018-12-06T23:27:30.370Z,99477.25
2018-12-06T23:29:58.544Z,99473.09
2018-12-06T23:32:26.779Z,99475.87
2018-12-06T23:34:55.069Z,99473.57
2018-12-06T23:37:23.450Z,99466.73
2018-12-06T23:39:51.720Z,99462.88
2018-12-06T23:42:20.019Z,99467.99
2018-12-06T23:44:48.192Z,99471.43
2018-12-06T23:47:16.398Z,99463.41
2018-12-06T23:49:44.655Z,99469.97
2018-12-06T23:52:12.817Z,99465.23
2018-12-06T23:54:40.988Z,99466.92
2018-12-06T23:57:09.161Z,99451.31
2018-12-06T23:59:37.363Z,99460.00
